sensor_id;sensor_type;location;lat;lon;timestamp;P1;durP1;ratioP1;P2;durP2;ratioP2
1691;SDS011;843;52.054;8.552;2022-10-16T00:00:41;8.30;;;6.57;;
1691;SDS011;843;52.054;8.552;2022-10-16T00:03:09;8.23;;;6.70;;
1691;SDS011;843;52.054;8.552;2022-10-16T00:05:41;10.00;;;7.27;;
1691;SDS011;843;52.054;8.552;2022-10-16T00:08:08;9.70;;;8.03;;
1691;SDS011;843;52.054;8.552;2022-10-16T00:10:36;12.53;;;8.40;;
1691;SDS011;843;52.054;8.552;2022-10-16T00:13:03;12.03;;;7.60;;
1691;SDS011;843;52.054;8.552;2022-10-16T00:15:30;12.93;;;7.60;;
1691;SDS011;843;52.054;8.552;2022-10-16T00:17:56;10.53;;;7.87;;
1691;SDS011;843;52.054;8.552;2022-10-16T00:20:23;10.97;;;8.07;;
1691;SDS011;843;52.054;8.552;2022-10-16T00:22:51;11.33;;;7.67;;
1691;SDS011;843;52.054;8.552;2022-10-16T00:25:18;10.33;;;7.33;;
1691;SDS011;843;52.054;8.552;2022-10-16T00:27:44;9.00;;;7.50;;
1691;SDS011;843;52.054;8.552;2022-10-16T00:30:11;10.43;;;8.13;;
1691;SDS011;843;52.054;8.552;2022-10-16T00:32:37;7.87;;;7.00;;
1691;SDS011;843;52.054;8.552;2022-10-16T00:35:04;9.07;;;7.30;;
1691;SDS011;843;52.054;8.552;2022-10-16T00:37:31;9.43;;;7.20;;
1691;SDS011;843;52.054;8.552;2022-10-16T00:39:59;8.57;;;7.37;;
1691;SDS011;843;52.054;8.552;2022-10-16T00:42:26;8.80;;;7.40;;
1691;SDS011;843;52.054;8.552;2022-10-16T00:44:53;8.00;;;7.20;;
1691;SDS011;843;52.054;8.552;2022-10-16T00:47:22;10.33;;;7.70;;
1691;SDS011;843;52.054;8.552;2022-10-16T00:49:52;11.03;;;8.17;;
1691;SDS011;843;52.054;8.552;2022-10-16T00:52:21;9.10;;;8.03;;
1691;SDS011;843;52.054;8.552;2022-10-16T00:54:48;10.33;;;8.13;;
1691;SDS011;843;52.054;8.552;2022-10-16T00:57:17;11.47;;;8.63;;
1691;SDS011;843;52.054;8.552;2022-10-16T00:59:44;10.17;;;7.47;;
1691;SDS011;843;52.054;8.552;2022-10-16T01:02:13;8.43;;;7.50;;
1691;SDS011;843;52.054;8.552;2022-10-16T01:04:41;9.73;;;7.43;;
1691;SDS011;843;52.054;8.552;2022-10-16T01:07:11;13.70;;;8.67;;
1691;SDS011;843;52.054;8.552;2022-10-16T01:09:42;10.43;;;8.00;;
1691;SDS011;843;52.054;8.552;2022-10-16T01:12:14;12.77;;;8.83;;
1691;SDS011;843;52.054;8.552;2022-10-16T01:14:45;9.57;;;7.60;;
1691;SDS011;843;52.054;8.552;2022-10-16T01:17:15;11.43;;;9.10;;
1691;SDS011;843;52.054;8.552;2022-10-16T01:19:50;14.33;;;7.80;;
1691;SDS011;843;52.054;8.552;2022-10-16T01:22:24;10.83;;;7.47;;
1691;SDS011;843;52.054;8.552;2022-10-16T01:24:52;9.77;;;7.90;;
1691;SDS011;843;52.054;8.552;2022-10-16T01:27:22;13.10;;;8.50;;
1691;SDS011;843;52.054;8.552;2022-10-16T01:29:52;10.70;;;9.23;;
1691;SDS011;843;52.054;8.552;2022-10-16T01:32:21;9.63;;;8.37;;
1691;SDS011;843;52.054;8.552;2022-10-16T01:34:51;11.23;;;7.70;;
1691;SDS011;843;52.054;8.552;2022-10-16T01:37:22;12.03;;;9.67;;
1691;SDS011;843;52.054;8.552;2022-10-16T01:39:51;12.60;;;8.77;;
1691;SDS011;843;52.054;8.552;2022-10-16T01:42:24;12.10;;;9.33;;
1691;SDS011;843;52.054;8.552;2022-10-16T01:44:53;10.60;;;9.33;;
1691;SDS011;843;52.054;8.552;2022-10-16T01:47:22;11.07;;;9.00;;
1691;SDS011;843;52.054;8.552;2022-10-16T01:49:50;11.00;;;9.80;;
1691;SDS011;843;52.054;8.552;2022-10-16T01:52:19;12.70;;;9.10;;
1691;SDS011;843;52.054;8.552;2022-10-16T01:54:48;10.40;;;8.70;;
1691;SDS011;843;52.054;8.552;2022-10-16T01:57:16;13.97;;;10.00;;
1691;SDS011;843;52.054;8.552;2022-10-16T01:59:46;12.47;;;9.90;;
1691;SDS011;843;52.054;8.552;2022-10-16T02:02:14;11.60;;;8.10;;
1691;SDS011;843;52.054;8.552;2022-10-16T02:04:42;10.77;;;8.90;;
1691;SDS011;843;52.054;8.552;2022-10-16T02:07:10;13.20;;;8.83;;
1691;SDS011;843;52.054;8.552;2022-10-16T02:09:37;14.07;;;8.27;;
1691;SDS011;843;52.054;8.552;2022-10-16T02:12:06;10.63;;;9.33;;
1691;SDS011;843;52.054;8.552;2022-10-16T02:14:35;11.70;;;9.40;;
1691;SDS011;843;52.054;8.552;2022-10-16T02:17:10;11.37;;;8.03;;
1691;SDS011;843;52.054;8.552;2022-10-16T02:19:37;10.90;;;8.77;;
1691;SDS011;843;52.054;8.552;2022-10-16T02:22:04;9.37;;;8.30;;
1691;SDS011;843;52.054;8.552;2022-10-16T02:24:37;9.03;;;8.13;;
1691;SDS011;843;52.054;8.552;2022-10-16T02:27:06;9.90;;;7.63;;
1691;SDS011;843;52.054;8.552;2022-10-16T02:29:38;10.20;;;7.50;;
1691;SDS011;843;52.054;8.552;2022-10-16T02:32:11;9.87;;;8.03;;
1691;SDS011;843;52.054;8.552;2022-10-16T02:34:39;9.73;;;8.30;;
1691;SDS011;843;52.054;8.552;2022-10-16T02:37:05;13.83;;;7.27;;
1691;SDS011;843;52.054;8.552;2022-10-16T02:39:32;11.67;;;8.00;;
1691;SDS011;843;52.054;8.552;2022-10-16T02:42:00;11.00;;;7.67;;
1691;SDS011;843;52.054;8.552;2022-10-16T02:44:26;9.53;;;7.43;;
1691;SDS011;843;52.054;8.552;2022-10-16T02:46:53;9.03;;;7.07;;
1691;SDS011;843;52.054;8.552;2022-10-16T02:49:21;10.43;;;8.07;;
1691;SDS011;843;52.054;8.552;2022-10-16T02:51:48;12.80;;;8.87;;
1691;SDS011;843;52.054;8.552;2022-10-16T02:54:14;8.33;;;6.80;;
1691;SDS011;843;52.054;8.552;2022-10-16T02:56:41;7.77;;;6.97;;
1691;SDS011;843;52.054;8.552;2022-10-16T02:59:07;11.00;;;6.80;;
1691;SDS011;843;52.054;8.552;2022-10-16T03:01:34;9.80;;;8.33;;
1691;SDS011;843;52.054;8.552;2022-10-16T03:04:00;10.37;;;7.60;;
1691;SDS011;843;52.054;8.552;2022-10-16T03:06:28;10.27;;;7.70;;
1691;SDS011;843;52.054;8.552;2022-10-16T03:08:55;10.43;;;9.37;;
1691;SDS011;843;52.054;8.552;2022-10-16T03:11:22;13.03;;;9.30;;
1691;SDS011;843;52.054;8.552;2022-10-16T03:13:48;13.63;;;9.07;;
1691;SDS011;843;52.054;8.552;2022-10-16T03:16:17;10.73;;;8.43;;
1691;SDS011;843;52.054;8.552;2022-10-16T03:18:43;8.03;;;7.27;;
1691;SDS011;843;52.054;8.552;2022-10-16T03:21:14;8.77;;;6.80;;
1691;SDS011;843;52.054;8.552;2022-10-16T03:23:42;13.63;;;7.87;;
1691;SDS011;843;52.054;8.552;2022-10-16T03:26:08;7.07;;;5.67;;
1691;SDS011;843;52.054;8.552;2022-10-16T03:28:35;5.63;;;5.13;;
1691;SDS011;843;52.054;8.552;2022-10-16T03:31:01;10.00;;;5.00;;
1691;SDS011;843;52.054;8.552;2022-10-16T03:33:28;7.63;;;5.30;;
1691;SDS011;843;52.054;8.552;2022-10-16T03:35:55;12.30;;;5.20;;
1691;SDS011;843;52.054;8.552;2022-10-16T03:38:21;7.53;;;4.83;;
1691;SDS011;843;52.054;8.552;2022-10-16T03:40:49;6.97;;;4.67;;
1691;SDS011;843;52.054;8.552;2022-10-16T03:43:16;6.27;;;4.63;;
1691;SDS011;843;52.054;8.552;2022-10-16T03:45:42;7.30;;;5.07;;
1691;SDS011;843;52.054;8.552;2022-10-16T03:48:09;8.00;;;5.60;;
1691;SDS011;843;52.054;8.552;2022-10-16T03:50:36;7.00;;;5.40;;
1691;SDS011;843;52.054;8.552;2022-10-16T03:53:02;8.80;;;6.00;;
1691;SDS011;843;52.054;8.552;2022-10-16T03:55:29;11.90;;;5.47;;
1691;SDS011;843;52.054;8.552;2022-10-16T03:57:57;7.63;;;5.17;;
1691;SDS011;843;52.054;8.552;2022-10-16T04:00:24;6.47;;;5.20;;
1691;SDS011;843;52.054;8.552;2022-10-16T04:02:50;6.80;;;5.53;;
1691;SDS011;843;52.054;8.552;2022-10-16T04:05:17;6.63;;;4.87;;
1691;SDS011;843;52.054;8.552;2022-10-16T04:07:44;5.80;;;4.90;;
1691;SDS011;843;52.054;8.552;2022-10-16T04:10:10;9.10;;;4.53;;
1691;SDS011;843;52.054;8.552;2022-10-16T04:12:37;4.90;;;4.30;;
1691;SDS011;843;52.054;8.552;2022-10-16T04:15:05;6.87;;;4.67;;
1691;SDS011;843;52.054;8.552;2022-10-16T04:17:33;5.67;;;4.33;;
1691;SDS011;843;52.054;8.552;2022-10-16T04:19:59;4.10;;;3.57;;
1691;SDS011;843;52.054;8.552;2022-10-16T04:22:28;4.57;;;3.73;;
1691;SDS011;843;52.054;8.552;2022-10-16T04:24:55;4.53;;;3.73;;
1691;SDS011;843;52.054;8.552;2022-10-16T04:27:21;3.93;;;3.63;;
1691;SDS011;843;52.054;8.552;2022-10-16T04:29:48;4.13;;;3.30;;
1691;SDS011;843;52.054;8.552;2022-10-16T04:32:16;4.10;;;3.40;;
1691;SDS011;843;52.054;8.552;2022-10-16T04:34:43;5.30;;;4.23;;
1691;SDS011;843;52.054;8.552;2022-10-16T04:37:09;5.33;;;3.00;;
1691;SDS011;843;52.054;8.552;2022-10-16T04:39:36;4.30;;;3.40;;
1691;SDS011;843;52.054;8.552;2022-10-16T04:42:02;4.90;;;3.57;;
1691;SDS011;843;52.054;8.552;2022-10-16T04:44:29;3.63;;;3.33;;
1691;SDS011;843;52.054;8.552;2022-10-16T04:46:56;4.20;;;3.17;;
1691;SDS011;843;52.054;8.552;2022-10-16T04:49:24;4.50;;;3.30;;
1691;SDS011;843;52.054;8.552;2022-10-16T04:51:50;4.27;;;3.43;;
1691;SDS011;843;52.054;8.552;2022-10-16T04:54:17;4.30;;;3.83;;
1691;SDS011;843;52.054;8.552;2022-10-16T04:56:44;7.87;;;3.27;;
1691;SDS011;843;52.054;8.552;2022-10-16T04:59:12;5.30;;;3.37;;
1691;SDS011;843;52.054;8.552;2022-10-16T05:01:39;4.87;;;3.53;;
1691;SDS011;843;52.054;8.552;2022-10-16T05:04:05;3.10;;;2.80;;
1691;SDS011;843;52.054;8.552;2022-10-16T05:06:33;5.97;;;3.70;;
1691;SDS011;843;52.054;8.552;2022-10-16T05:09:00;7.40;;;3.40;;
1691;SDS011;843;52.054;8.552;2022-10-16T05:11:29;6.50;;;3.57;;
1691;SDS011;843;52.054;8.552;2022-10-16T05:13:55;6.60;;;3.63;;
1691;SDS011;843;52.054;8.552;2022-10-16T05:16:22;5.67;;;3.70;;
1691;SDS011;843;52.054;8.552;2022-10-16T05:18:49;5.60;;;3.50;;
1691;SDS011;843;52.054;8.552;2022-10-16T05:21:17;9.50;;;3.30;;
1691;SDS011;843;52.054;8.552;2022-10-16T05:23:45;4.37;;;3.03;;
1691;SDS011;843;52.054;8.552;2022-10-16T05:26:12;3.27;;;2.97;;
1691;SDS011;843;52.054;8.552;2022-10-16T05:28:38;3.63;;;3.00;;
1691;SDS011;843;52.054;8.552;2022-10-16T05:31:05;4.17;;;3.57;;
1691;SDS011;843;52.054;8.552;2022-10-16T05:33:32;3.63;;;3.33;;
1691;SDS011;843;52.054;8.552;2022-10-16T05:36:00;3.80;;;3.43;;
1691;SDS011;843;52.054;8.552;2022-10-16T05:38:28;2.90;;;2.70;;
1691;SDS011;843;52.054;8.552;2022-10-16T05:40:56;3.93;;;3.43;;
1691;SDS011;843;52.054;8.552;2022-10-16T05:43:23;4.13;;;3.60;;
1691;SDS011;843;52.054;8.552;2022-10-16T05:45:53;4.47;;;4.03;;
1691;SDS011;843;52.054;8.552;2022-10-16T05:48:20;5.33;;;3.70;;
1691;SDS011;843;52.054;8.552;2022-10-16T05:50:47;3.60;;;3.30;;
1691;SDS011;843;52.054;8.552;2022-10-16T05:53:14;8.07;;;3.53;;
1691;SDS011;843;52.054;8.552;2022-10-16T05:55:41;4.47;;;3.97;;
1691;SDS011;843;52.054;8.552;2022-10-16T05:58:09;4.00;;;3.40;;
1691;SDS011;843;52.054;8.552;2022-10-16T06:00:35;5.30;;;3.67;;
1691;SDS011;843;52.054;8.552;2022-10-16T06:03:02;4.10;;;3.40;;
1691;SDS011;843;52.054;8.552;2022-10-16T06:05:29;3.10;;;2.90;;
1691;SDS011;843;52.054;8.552;2022-10-16T06:07:56;3.57;;;3.27;;
1691;SDS011;843;52.054;8.552;2022-10-16T06:10:23;4.73;;;2.90;;
1691;SDS011;843;52.054;8.552;2022-10-16T06:12:49;5.13;;;3.43;;
1691;SDS011;843;52.054;8.552;2022-10-16T06:15:17;8.10;;;3.37;;
1691;SDS011;843;52.054;8.552;2022-10-16T06:17:44;3.33;;;3.03;;
1691;SDS011;843;52.054;8.552;2022-10-16T06:20:11;3.40;;;2.77;;
1691;SDS011;843;52.054;8.552;2022-10-16T06:22:38;4.43;;;2.50;;
1691;SDS011;843;52.054;8.552;2022-10-16T06:25:04;4.10;;;2.37;;
1691;SDS011;843;52.054;8.552;2022-10-16T06:27:31;3.10;;;2.90;;
1691;SDS011;843;52.054;8.552;2022-10-16T06:29:58;2.70;;;2.50;;
1691;SDS011;843;52.054;8.552;2022-10-16T06:32:26;5.60;;;2.40;;
1691;SDS011;843;52.054;8.552;2022-10-16T06:34:55;3.50;;;2.50;;
1691;SDS011;843;52.054;8.552;2022-10-16T06:37:22;2.50;;;2.20;;
1691;SDS011;843;52.054;8.552;2022-10-16T06:39:50;3.50;;;2.63;;
1691;SDS011;843;52.054;8.552;2022-10-16T06:42:17;3.27;;;1.97;;
1691;SDS011;843;52.054;8.552;2022-10-16T06:44:44;2.60;;;2.00;;
1691;SDS011;843;52.054;8.552;2022-10-16T06:47:11;2.63;;;2.03;;
1691;SDS011;843;52.054;8.552;2022-10-16T06:49:39;3.00;;;1.80;;
1691;SDS011;843;52.054;8.552;2022-10-16T06:52:05;2.40;;;2.00;;
1691;SDS011;843;52.054;8.552;2022-10-16T06:54:32;3.43;;;1.80;;
1691;SDS011;843;52.054;8.552;2022-10-16T06:56:59;3.70;;;1.80;;
1691;SDS011;843;52.054;8.552;2022-10-16T06:59:26;2.97;;;1.50;;
1691;SDS011;843;52.054;8.552;2022-10-16T07:01:53;2.23;;;1.80;;
1691;SDS011;843;52.054;8.552;2022-10-16T07:04:20;2.90;;;1.90;;
1691;SDS011;843;52.054;8.552;2022-10-16T07:06:48;3.10;;;2.13;;
1691;SDS011;843;52.054;8.552;2022-10-16T07:09:16;4.57;;;1.70;;
1691;SDS011;843;52.054;8.552;2022-10-16T07:11:43;4.20;;;1.70;;
1691;SDS011;843;52.054;8.552;2022-10-16T07:14:12;1.80;;;1.60;;
1691;SDS011;843;52.054;8.552;2022-10-16T07:16:42;4.40;;;1.63;;
1691;SDS011;843;52.054;8.552;2022-10-16T07:19:08;1.93;;;1.70;;
1691;SDS011;843;52.054;8.552;2022-10-16T07:21:37;2.13;;;1.47;;
1691;SDS011;843;52.054;8.552;2022-10-16T07:24:06;2.00;;;1.50;;
1691;SDS011;843;52.054;8.552;2022-10-16T07:26:46;1.30;;;1.10;;
1691;SDS011;843;52.054;8.552;2022-10-16T07:29:13;2.00;;;1.33;;
1691;SDS011;843;52.054;8.552;2022-10-16T07:31:40;2.40;;;1.37;;
1691;SDS011;843;52.054;8.552;2022-10-16T07:34:07;2.00;;;1.23;;
1691;SDS011;843;52.054;8.552;2022-10-16T07:36:36;4.03;;;1.67;;
1691;SDS011;843;52.054;8.552;2022-10-16T07:39:03;4.70;;;1.43;;
1691;SDS011;843;52.054;8.552;2022-10-16T07:41:31;1.80;;;1.53;;
1691;SDS011;843;52.054;8.552;2022-10-16T07:44:01;1.80;;;1.17;;
1691;SDS011;843;52.054;8.552;2022-10-16T07:46:28;1.43;;;1.00;;
1691;SDS011;843;52.054;8.552;2022-10-16T07:48:59;1.47;;;1.10;;
1691;SDS011;843;52.054;8.552;2022-10-16T07:51:26;2.23;;;1.40;;
1691;SDS011;843;52.054;8.552;2022-10-16T07:53:53;2.23;;;1.20;;
1691;SDS011;843;52.054;8.552;2022-10-16T07:56:20;5.60;;;1.40;;
1691;SDS011;843;52.054;8.552;2022-10-16T07:58:49;2.00;;;1.63;;
1691;SDS011;843;52.054;8.552;2022-10-16T08:01:18;2.90;;;1.70;;
1691;SDS011;843;52.054;8.552;2022-10-16T08:03:45;2.70;;;1.47;;
1691;SDS011;843;52.054;8.552;2022-10-16T08:06:13;1.83;;;1.53;;
1691;SDS011;843;52.054;8.552;2022-10-16T08:08:40;2.57;;;1.23;;
1691;SDS011;843;52.054;8.552;2022-10-16T08:11:06;1.30;;;1.20;;
1691;SDS011;843;52.054;8.552;2022-10-16T08:13:33;1.27;;;1.17;;
1691;SDS011;843;52.054;8.552;2022-10-16T08:16:11;1.93;;;1.27;;
1691;SDS011;843;52.054;8.552;2022-10-16T08:18:38;1.60;;;0.90;;
1691;SDS011;843;52.054;8.552;2022-10-16T08:21:06;3.93;;;1.57;;
1691;SDS011;843;52.054;8.552;2022-10-16T08:23:33;3.03;;;1.50;;
1691;SDS011;843;52.054;8.552;2022-10-16T08:26:04;1.97;;;1.00;;
1691;SDS011;843;52.054;8.552;2022-10-16T08:28:32;2.10;;;1.23;;
1691;SDS011;843;52.054;8.552;2022-10-16T08:33:43;1.30;;;0.93;;
1691;SDS011;843;52.054;8.552;2022-10-16T08:36:11;2.87;;;1.00;;
1691;SDS011;843;52.054;8.552;2022-10-16T08:38:38;1.80;;;1.13;;
1691;SDS011;843;52.054;8.552;2022-10-16T08:41:21;2.33;;;1.17;;
1691;SDS011;843;52.054;8.552;2022-10-16T08:44:00;2.00;;;1.00;;
1691;SDS011;843;52.054;8.552;2022-10-16T08:46:50;3.70;;;1.10;;
1691;SDS011;843;52.054;8.552;2022-10-16T08:49:20;2.33;;;0.93;;
1691;SDS011;843;52.054;8.552;2022-10-16T08:51:49;1.30;;;1.00;;
1691;SDS011;843;52.054;8.552;2022-10-16T08:54:21;2.90;;;1.10;;
1691;SDS011;843;52.054;8.552;2022-10-16T08:56:53;2.83;;;1.10;;
1691;SDS011;843;52.054;8.552;2022-10-16T08:59:20;3.50;;;1.33;;
1691;SDS011;843;52.054;8.552;2022-10-16T09:01:48;2.00;;;1.00;;
1691;SDS011;843;52.054;8.552;2022-10-16T09:07:09;2.53;;;0.87;;
1691;SDS011;843;52.054;8.552;2022-10-16T09:09:51;2.07;;;0.90;;
1691;SDS011;843;52.054;8.552;2022-10-16T09:12:25;1.50;;;1.07;;
1691;SDS011;843;52.054;8.552;2022-10-16T09:14:58;3.40;;;1.20;;
1691;SDS011;843;52.054;8.552;2022-10-16T09:17:41;1.93;;;0.87;;
1691;SDS011;843;52.054;8.552;2022-10-16T09:20:17;2.23;;;1.00;;
1691;SDS011;843;52.054;8.552;2022-10-16T09:22:46;3.20;;;1.03;;
1691;SDS011;843;52.054;8.552;2022-10-16T09:25:19;1.67;;;0.90;;
1691;SDS011;843;52.054;8.552;2022-10-16T09:27:48;2.50;;;1.20;;
1691;SDS011;843;52.054;8.552;2022-10-16T09:30:16;2.50;;;1.13;;
1691;SDS011;843;52.054;8.552;2022-10-16T09:32:48;4.83;;;1.20;;
1691;SDS011;843;52.054;8.552;2022-10-16T09:35:17;1.83;;;1.07;;
1691;SDS011;843;52.054;8.552;2022-10-16T09:37:46;3.13;;;1.00;;
1691;SDS011;843;52.054;8.552;2022-10-16T09:40:23;3.00;;;0.87;;
1691;SDS011;843;52.054;8.552;2022-10-16T09:42:51;4.03;;;0.90;;
1691;SDS011;843;52.054;8.552;2022-10-16T09:45:21;3.37;;;1.33;;
1691;SDS011;843;52.054;8.552;2022-10-16T09:47:50;2.13;;;0.70;;
1691;SDS011;843;52.054;8.552;2022-10-16T09:50:22;8.30;;;0.93;;
1691;SDS011;843;52.054;8.552;2022-10-16T09:52:51;4.03;;;0.80;;
1691;SDS011;843;52.054;8.552;2022-10-16T09:55:29;3.20;;;0.70;;
1691;SDS011;843;52.054;8.552;2022-10-16T09:57:55;2.90;;;0.70;;
1691;SDS011;843;52.054;8.552;2022-10-16T10:00:23;2.07;;;1.23;;
1691;SDS011;843;52.054;8.552;2022-10-16T10:02:52;5.13;;;1.43;;
1691;SDS011;843;52.054;8.552;2022-10-16T10:05:20;3.07;;;0.70;;
1691;SDS011;843;52.054;8.552;2022-10-16T10:07:52;2.57;;;0.60;;
1691;SDS011;843;52.054;8.552;2022-10-16T10:10:23;4.07;;;1.00;;
1691;SDS011;843;52.054;8.552;2022-10-16T10:12:51;2.10;;;0.80;;
1691;SDS011;843;52.054;8.552;2022-10-16T10:15:18;2.23;;;0.70;;
1691;SDS011;843;52.054;8.552;2022-10-16T10:17:47;2.70;;;0.70;;
1691;SDS011;843;52.054;8.552;2022-10-16T10:20:21;2.80;;;0.63;;
1691;SDS011;843;52.054;8.552;2022-10-16T10:22:49;1.73;;;0.73;;
1691;SDS011;843;52.054;8.552;2022-10-16T10:25:21;1.93;;;0.90;;
1691;SDS011;843;52.054;8.552;2022-10-16T10:27:59;2.10;;;0.67;;
1691;SDS011;843;52.054;8.552;2022-10-16T10:30:44;2.43;;;1.17;;
1691;SDS011;843;52.054;8.552;2022-10-16T10:33:17;3.63;;;0.90;;
1691;SDS011;843;52.054;8.552;2022-10-16T10:35:52;2.40;;;0.70;;
1691;SDS011;843;52.054;8.552;2022-10-16T10:38:25;4.37;;;1.13;;
1691;SDS011;843;52.054;8.552;2022-10-16T10:41:00;2.20;;;0.60;;
1691;SDS011;843;52.054;8.552;2022-10-16T10:43:41;3.97;;;0.77;;
1691;SDS011;843;52.054;8.552;2022-10-16T10:46:15;3.87;;;1.00;;
1691;SDS011;843;52.054;8.552;2022-10-16T10:48:58;2.00;;;0.67;;
1691;SDS011;843;52.054;8.552;2022-10-16T10:51:40;4.90;;;1.10;;
1691;SDS011;843;52.054;8.552;2022-10-16T10:54:16;1.90;;;0.70;;
1691;SDS011;843;52.054;8.552;2022-10-16T10:56:48;2.40;;;0.57;;
1691;SDS011;843;52.054;8.552;2022-10-16T10:59:22;1.57;;;0.70;;
1691;SDS011;843;52.054;8.552;2022-10-16T11:01:59;2.00;;;1.07;;
1691;SDS011;843;52.054;8.552;2022-10-16T11:04:34;6.03;;;1.47;;
1691;SDS011;843;52.054;8.552;2022-10-16T11:07:10;4.77;;;1.17;;
1691;SDS011;843;52.054;8.552;2022-10-16T11:09:42;5.10;;;1.03;;
1691;SDS011;843;52.054;8.552;2022-10-16T11:12:12;3.77;;;0.97;;
1691;SDS011;843;52.054;8.552;2022-10-16T11:14:42;1.63;;;0.90;;
1691;SDS011;843;52.054;8.552;2022-10-16T11:17:13;2.43;;;0.80;;
1691;SDS011;843;52.054;8.552;2022-10-16T11:19:44;2.00;;;0.60;;
1691;SDS011;843;52.054;8.552;2022-10-16T11:22:17;3.10;;;0.80;;
1691;SDS011;843;52.054;8.552;2022-10-16T11:24:48;2.70;;;1.00;;
1691;SDS011;843;52.054;8.552;2022-10-16T11:27:19;2.30;;;0.97;;
1691;SDS011;843;52.054;8.552;2022-10-16T11:29:51;2.03;;;0.73;;
1691;SDS011;843;52.054;8.552;2022-10-16T11:32:25;5.70;;;1.07;;
1691;SDS011;843;52.054;8.552;2022-10-16T11:34:57;3.50;;;0.80;;
1691;SDS011;843;52.054;8.552;2022-10-16T11:37:29;4.67;;;1.33;;
1691;SDS011;843;52.054;8.552;2022-10-16T11:39:58;3.40;;;1.30;;
1691;SDS011;843;52.054;8.552;2022-10-16T11:42:32;2.10;;;0.93;;
1691;SDS011;843;52.054;8.552;2022-10-16T11:45:07;4.43;;;1.10;;
1691;SDS011;843;52.054;8.552;2022-10-16T11:47:39;4.50;;;1.30;;
1691;SDS011;843;52.054;8.552;2022-10-16T11:50:10;3.53;;;0.90;;
1691;SDS011;843;52.054;8.552;2022-10-16T11:52:42;3.53;;;1.07;;
1691;SDS011;843;52.054;8.552;2022-10-16T11:55:14;2.80;;;0.90;;
1691;SDS011;843;52.054;8.552;2022-10-16T11:57:43;4.10;;;0.87;;
1691;SDS011;843;52.054;8.552;2022-10-16T12:00:14;2.50;;;0.70;;
1691;SDS011;843;52.054;8.552;2022-10-16T12:02:49;2.90;;;1.13;;
1691;SDS011;843;52.054;8.552;2022-10-16T12:05:22;1.27;;;0.80;;
1691;SDS011;843;52.054;8.552;2022-10-16T12:08:02;3.47;;;0.90;;
1691;SDS011;843;52.054;8.552;2022-10-16T12:10:34;2.50;;;1.20;;
1691;SDS011;843;52.054;8.552;2022-10-16T12:13:02;2.07;;;0.90;;
1691;SDS011;843;52.054;8.552;2022-10-16T12:15:30;2.63;;;0.73;;
1691;SDS011;843;52.054;8.552;2022-10-16T12:17:58;2.10;;;0.90;;
1691;SDS011;843;52.054;8.552;2022-10-16T12:20:26;2.97;;;0.97;;
1691;SDS011;843;52.054;8.552;2022-10-16T12:22:56;3.77;;;1.30;;
1691;SDS011;843;52.054;8.552;2022-10-16T12:25:26;2.90;;;1.00;;
1691;SDS011;843;52.054;8.552;2022-10-16T12:27:55;1.43;;;0.80;;
1691;SDS011;843;52.054;8.552;2022-10-16T12:30:24;2.10;;;1.27;;
1691;SDS011;843;52.054;8.552;2022-10-16T12:32:55;2.13;;;1.10;;
1691;SDS011;843;52.054;8.552;2022-10-16T12:35:24;1.53;;;1.10;;
1691;SDS011;843;52.054;8.552;2022-10-16T12:37:52;4.13;;;1.10;;
1691;SDS011;843;52.054;8.552;2022-10-16T12:40:27;2.50;;;1.00;;
1691;SDS011;843;52.054;8.552;2022-10-16T12:42:56;1.37;;;0.93;;
1691;SDS011;843;52.054;8.552;2022-10-16T12:45:26;3.23;;;1.07;;
1691;SDS011;843;52.054;8.552;2022-10-16T12:47:56;3.27;;;0.80;;
1691;SDS011;843;52.054;8.552;2022-10-16T12:50:24;2.50;;;1.30;;
1691;SDS011;843;52.054;8.552;2022-10-16T12:52:59;2.40;;;1.27;;
1691;SDS011;843;52.054;8.552;2022-10-16T12:55:30;2.13;;;1.17;;
1691;SDS011;843;52.054;8.552;2022-10-16T12:58:24;1.40;;;1.10;;
1691;SDS011;843;52.054;8.552;2022-10-16T13:01:01;1.97;;;1.23;;
1691;SDS011;843;52.054;8.552;2022-10-16T13:03:44;2.10;;;1.27;;
1691;SDS011;843;52.054;8.552;2022-10-16T13:06:21;2.13;;;1.33;;
1691;SDS011;843;52.054;8.552;2022-10-16T13:09:01;3.17;;;1.20;;
1691;SDS011;843;52.054;8.552;2022-10-16T13:11:55;3.03;;;1.37;;
1691;SDS011;843;52.054;8.552;2022-10-16T13:14:46;2.60;;;1.30;;
1691;SDS011;843;52.054;8.552;2022-10-16T13:17:30;3.67;;;1.40;;
1691;SDS011;843;52.054;8.552;2022-10-16T13:20:03;2.90;;;1.43;;
1691;SDS011;843;52.054;8.552;2022-10-16T13:22:40;1.97;;;1.27;;
1691;SDS011;843;52.054;8.552;2022-10-16T13:25:16;2.73;;;1.30;;
1691;SDS011;843;52.054;8.552;2022-10-16T13:27:50;2.67;;;1.90;;
1691;SDS011;843;52.054;8.552;2022-10-16T13:30:21;1.30;;;1.10;;
1691;SDS011;843;52.054;8.552;2022-10-16T13:32:50;2.13;;;1.40;;
1691;SDS011;843;52.054;8.552;2022-10-16T13:35:23;3.10;;;1.80;;
1691;SDS011;843;52.054;8.552;2022-10-16T13:37:50;2.90;;;1.47;;
1691;SDS011;843;52.054;8.552;2022-10-16T13:40:18;2.90;;;1.43;;
1691;SDS011;843;52.054;8.552;2022-10-16T13:42:48;2.40;;;1.30;;
1691;SDS011;843;52.054;8.552;2022-10-16T13:45:17;2.17;;;1.50;;
1691;SDS011;843;52.054;8.552;2022-10-16T13:47:44;2.40;;;1.50;;
1691;SDS011;843;52.054;8.552;2022-10-16T13:50:12;4.93;;;1.80;;
1691;SDS011;843;52.054;8.552;2022-10-16T13:52:41;1.70;;;1.30;;
1691;SDS011;843;52.054;8.552;2022-10-16T13:55:10;2.20;;;1.23;;
1691;SDS011;843;52.054;8.552;2022-10-16T13:57:37;4.00;;;1.47;;
1691;SDS011;843;52.054;8.552;2022-10-16T14:00:20;3.40;;;1.40;;
1691;SDS011;843;52.054;8.552;2022-10-16T14:02:50;2.70;;;2.03;;
1691;SDS011;843;52.054;8.552;2022-10-16T14:05:18;2.70;;;1.47;;
1691;SDS011;843;52.054;8.552;2022-10-16T14:07:47;3.07;;;1.50;;
1691;SDS011;843;52.054;8.552;2022-10-16T14:10:20;6.63;;;1.40;;
1691;SDS011;843;52.054;8.552;2022-10-16T14:12:54;2.30;;;1.70;;
1691;SDS011;843;52.054;8.552;2022-10-16T14:15:23;8.10;;;1.33;;
1691;SDS011;843;52.054;8.552;2022-10-16T14:17:50;4.27;;;1.30;;
1691;SDS011;843;52.054;8.552;2022-10-16T14:20:17;2.30;;;1.30;;
1691;SDS011;843;52.054;8.552;2022-10-16T14:22:44;4.30;;;1.63;;
1691;SDS011;843;52.054;8.552;2022-10-16T14:25:23;3.63;;;1.60;;
1691;SDS011;843;52.054;8.552;2022-10-16T14:27:59;2.47;;;1.13;;
1691;SDS011;843;52.054;8.552;2022-10-16T14:30:28;1.60;;;1.17;;
1691;SDS011;843;52.054;8.552;2022-10-16T14:32:56;2.70;;;1.03;;
1691;SDS011;843;52.054;8.552;2022-10-16T14:35:25;3.80;;;1.40;;
1691;SDS011;843;52.054;8.552;2022-10-16T14:37:53;4.53;;;1.80;;
1691;SDS011;843;52.054;8.552;2022-10-16T14:40:21;2.30;;;1.47;;
1691;SDS011;843;52.054;8.552;2022-10-16T14:42:50;4.13;;;1.40;;
1691;SDS011;843;52.054;8.552;2022-10-16T14:45:18;6.57;;;1.57;;
1691;SDS011;843;52.054;8.552;2022-10-16T14:47:49;2.67;;;1.70;;
1691;SDS011;843;52.054;8.552;2022-10-16T14:50:20;2.40;;;1.20;;
1691;SDS011;843;52.054;8.552;2022-10-16T14:52:47;4.13;;;1.30;;
1691;SDS011;843;52.054;8.552;2022-10-16T14:55:14;3.63;;;1.10;;
1691;SDS011;843;52.054;8.552;2022-10-16T14:57:42;1.70;;;1.30;;
1691;SDS011;843;52.054;8.552;2022-10-16T15:00:13;2.57;;;1.30;;
1691;SDS011;843;52.054;8.552;2022-10-16T15:02:42;1.87;;;1.20;;
1691;SDS011;843;52.054;8.552;2022-10-16T15:05:13;6.17;;;1.30;;
1691;SDS011;843;52.054;8.552;2022-10-16T15:07:41;1.67;;;1.30;;
1691;SDS011;843;52.054;8.552;2022-10-16T15:10:08;2.40;;;1.33;;
1691;SDS011;843;52.054;8.552;2022-10-16T15:12:35;1.90;;;1.30;;
1691;SDS011;843;52.054;8.552;2022-10-16T15:15:05;1.47;;;1.27;;
1691;SDS011;843;52.054;8.552;2022-10-16T15:17:46;4.70;;;1.40;;
1691;SDS011;843;52.054;8.552;2022-10-16T15:20:15;2.30;;;1.30;;
1691;SDS011;843;52.054;8.552;2022-10-16T15:22:43;1.83;;;1.13;;
1691;SDS011;843;52.054;8.552;2022-10-16T15:25:10;3.80;;;1.90;;
1691;SDS011;843;52.054;8.552;2022-10-16T15:27:51;2.03;;;1.40;;
1691;SDS011;843;52.054;8.552;2022-10-16T15:30:17;3.00;;;1.67;;
1691;SDS011;843;52.054;8.552;2022-10-16T15:32:44;2.00;;;1.47;;
1691;SDS011;843;52.054;8.552;2022-10-16T15:35:11;4.17;;;2.00;;
1691;SDS011;843;52.054;8.552;2022-10-16T15:37:39;2.80;;;1.43;;
1691;SDS011;843;52.054;8.552;2022-10-16T15:40:07;1.63;;;1.27;;
1691;SDS011;843;52.054;8.552;2022-10-16T15:42:35;3.47;;;1.70;;
1691;SDS011;843;52.054;8.552;2022-10-16T15:45:01;2.60;;;1.43;;
1691;SDS011;843;52.054;8.552;2022-10-16T15:47:29;1.80;;;1.40;;